Maria Dolores — 9HBZ8 — position and weather

sailwx.info

Track history (hours):
 
Tides and Currents Weather Stations Pressure Air Temp Water Temp Dewpoint Dewpoint Depression Visibility Wind Speed Wind Dir Waves Ship Positions

Maria Dolores

Last reported at 2018-Jun-19 00:55 UTC. Time now 2018-Jun-21 22:05 UTC.
Position N 36°01' W 005°36'.

Length 68 m; draft 2.2 m.

Type: Ship. MMSI: 215883000.

Date/timePositionNaut miles runAvg speedWind from/ knotsBaromVisibWave heightAir tempDewpointWater temp
2018-Jun-19 00:55N 36°01' W 005°36'0 0.0
2018-Jun-19 00:30N 36°01' W 005°36'1 0.2
2018-Jun-18 21:14N 36°00' W 005°36'0 0.0
2018-Jun-18 06:06N 36°00' W 005°36'1 5.4
2018-Jun-18 06:00N 36°01' W 005°36'0 0.0
2018-Jun-18 05:31N 36°01' W 005°36'0 0.0
2018-Jun-18 05:00N 36°01' W 005°36'0 0.0
2018-Jun-18 04:30N 36°01' W 005°36'0 0.0
2018-Jun-18 03:43N 36°01' W 005°36'0 0.0
2018-Jun-18 03:31N 36°01' W 005°36'0 0.0
2018-Jun-18 02:19N 36°01' W 005°36'0 0.0
2018-Jun-18 02:01N 36°01' W 005°36'0 0.0
2018-Jun-18 01:31N 36°01' W 005°36'0 0.0
2018-Jun-18 01:01N 36°01' W 005°36'0 0.0
2018-Jun-18 00:31N 36°01' W 005°36'0 0.0
2018-Jun-18 00:00N 36°01' W 005°36'0 0.0
2018-Jun-17 23:30N 36°01' W 005°36'0 0.0
2018-Jun-17 23:01N 36°01' W 005°36'0 0.0
2018-Jun-17 21:25N 36°01' W 005°36'1 2.0
2018-Jun-17 21:00N 35°60' W 005°36'12 5.4
2018-Jun-17 18:44N 35°51' W 005°47'523.3
2018-Jun-17 18:30N 35°56' W 005°45'9 6.6
2018-Jun-17 17:13N 36°00' W 005°36'13 5.0
2018-Jun-17 14:40N 35°51' W 005°47'526.0
2018-Jun-17 14:29N 35°56' W 005°46'919.2
2018-Jun-17 14:00N 36°01' W 005°36'0 0.0
2018-Jun-17 13:30N 36°01' W 005°36'917.9
2018-Jun-17 13:00N 35°54' W 005°44'8 3.4
2018-Jun-17 10:32N 36°00' W 005°36'0 0.2
2018-Jun-17 09:29N 35°60' W 005°36'13 4.5
2018-Jun-17 06:40N 35°51' W 005°47'426.1
2018-Jun-17 06:30N 35°55' W 005°47'1020.0
2018-Jun-17 06:00N 36°01' W 005°36'0 0.0
2018-Jun-17 05:26N 36°01' W 005°36'0 0.0
2018-Jun-17 05:00N 36°01' W 005°36'0 0.0
2018-Jun-17 04:30N 36°01' W 005°36'0 0.0
2018-Jun-17 04:00N 36°01' W 005°36'0 0.0
2018-Jun-17 03:30N 36°01' W 005°36'0 0.0
2018-Jun-17 03:00N 36°01' W 005°36'0 0.0
2018-Jun-17 02:30N 36°01' W 005°36'0 0.0
2018-Jun-17 02:00N 36°01' W 005°36'0 0.0
2018-Jun-17 01:30N 36°01' W 005°36'0 0.0
2018-Jun-17 01:00N 36°01' W 005°36'0 0.0
2018-Jun-17 00:30N 36°01' W 005°36'0 0.0
2018-Jun-17 00:00N 36°01' W 005°36'0 0.0
2018-Jun-16 23:30N 36°01' W 005°36'0 0.0
2018-Jun-16 23:00N 36°01' W 005°36'0 0.0
2018-Jun-16 22:30N 36°01' W 005°36'0 0.0
2018-Jun-16 22:00N 36°01' W 005°36'0 0.3
2018-Jun-16 21:31N 36°00' W 005°36'1223.6
2018-Jun-16 21:00N 35°51' W 005°46'12 4.0
2018-Jun-16 18:07N 35°60' W 005°36'1 0.8
2018-Jun-16 17:21N 36°01' W 005°36'4 0.4
2018-Jun-16 06:19N 35°58' W 005°40'412.9
2018-Jun-16 06:01N 36°01' W 005°36'0 0.0
2018-Jun-16 05:30N 36°01' W 005°36'0 0.0
2018-Jun-16 05:01N 36°01' W 005°36'0 0.0
2018-Jun-16 04:31N 36°01' W 005°36'0 0.0
2018-Jun-16 04:01N 36°01' W 005°36'0 0.0
2018-Jun-16 03:31N 36°01' W 005°36'0 0.0
2018-Jun-16 03:01N 36°01' W 005°36'0 0.0
2018-Jun-16 02:31N 36°01' W 005°36'0 0.0
2018-Jun-16 02:01N 36°01' W 005°36'0 0.0
2018-Jun-16 01:31N 36°01' W 005°36'0 0.0
2018-Jun-16 01:01N 36°01' W 005°36'0 0.0
2018-Jun-16 00:31N 36°01' W 005°36'0 0.0
2018-Jun-16 00:00N 36°01' W 005°36'0 0.0
2018-Jun-15 23:30N 36°01' W 005°36'0 0.0
2018-Jun-15 23:00N 36°01' W 005°36'0 0.0
2018-Jun-15 22:31N 36°01' W 005°36'0 0.0
2018-Jun-15 22:01N 36°01' W 005°36'0 0.9
2018-Jun-15 21:31N 36°00' W 005°36'5 9.8
2018-Jun-15 21:00N 35°56' W 005°40'7 3.4
2018-Jun-15 18:51N 35°51' W 005°47'820.8
2018-Jun-15 18:26N 35°58' W 005°41'510.5
2018-Jun-15 18:00N 36°01' W 005°36'0 0.0
2018-Jun-15 17:30N 36°01' W 005°36'0 0.2
2018-Jun-15 14:32N 36°00' W 005°36'0 5.5
2018-Jun-15 14:29N 36°00' W 005°36'0 0.5
2018-Jun-15 13:57N 36°01' W 005°36'1 1.7
2018-Jun-15 13:30N 35°60' W 005°36'1 0.1
2018-Jun-15 05:34N 36°01' W 005°36'0 0.0
2018-Jun-15 05:30N 36°01' W 005°36'0 0.0
2018-Jun-15 05:00N 36°01' W 005°36'0 0.0
2018-Jun-15 04:30N 36°01' W 005°36'0 0.0
2018-Jun-15 04:00N 36°01' W 005°36'0 0.0
2018-Jun-15 03:30N 36°01' W 005°36'0 0.0
2018-Jun-15 02:58N 36°01' W 005°36'0 0.0
2018-Jun-15 02:30N 36°01' W 005°36'0 0.0
2018-Jun-15 02:00N 36°01' W 005°36'0 0.0
2018-Jun-15 01:30N 36°01' W 005°36'0 0.0
2018-Jun-15 01:00N 36°01' W 005°36'0 0.0
2018-Jun-15 00:30N 36°01' W 005°36'0 0.0
2018-Jun-15 00:00N 36°01' W 005°36'0 0.0
2018-Jun-14 23:30N 36°01' W 005°36'0 0.0
2018-Jun-14 23:00N 36°01' W 005°36'13 3.8
2018-Jun-14 19:35N 35°51' W 005°47'224.6
2018-Jun-14 19:31N 35°53' W 005°47'12 0.9
2018-Jun-14 06:05N 36°01' W 005°36'0 0.0
2018-Jun-14 06:00N 36°01' W 005°36'0 0.0
2018-Jun-14 05:30N 36°01' W 005°36'0 0.0
2018-Jun-14 04:36N 36°01' W 005°36'0 0.0
2018-Jun-14 04:30N 36°01' W 005°36'0 0.0
2018-Jun-14 04:00N 36°01' W 005°36'0 0.0
2018-Jun-14 03:30N 36°01' W 005°36'0 0.0
2018-Jun-14 03:00N 36°01' W 005°36'0 0.0
2018-Jun-14 02:30N 36°01' W 005°36'0 0.0
2018-Jun-14 02:00N 36°01' W 005°36'0 0.0
2018-Jun-14 01:30N 36°01' W 005°36'0 0.0
2018-Jun-13 22:44N 36°01' W 005°36'0 0.0
2018-Jun-13 22:30N 36°01' W 005°36'917.5
2018-Jun-13 21:59N 35°55' W 005°45'8 0.5
2018-Jun-13 06:07N 35°60' W 005°36'1 6.6
2018-Jun-13 06:00N 36°01' W 005°36'0 0.0
2018-Jun-13 05:30N 36°01' W 005°36'0 0.0
2018-Jun-13 05:00N 36°01' W 005°36'0 0.0
2018-Jun-13 04:30N 36°01' W 005°36'0 0.0
2018-Jun-13 04:00N 36°01' W 005°36'0 0.0
2018-Jun-13 03:30N 36°01' W 005°36'0 0.0
2018-Jun-13 03:00N 36°01' W 005°36'0 0.0
2018-Jun-13 02:30N 36°01' W 005°36'0 0.0
2018-Jun-13 02:00N 36°01' W 005°36'0 0.0
2018-Jun-13 01:30N 36°01' W 005°36'0 0.0
2018-Jun-13 01:00N 36°01' W 005°36'0 0.0
2018-Jun-13 00:30N 36°01' W 005°36'0 0.0
2018-Jun-13 00:00N 36°01' W 005°36'1 0.2
2018-Jun-12 21:51N 36°00' W 005°36'1 0.0
2018-Jun-12 05:20N 36°01' W 005°36'0 0.0
2018-Jun-12 05:00N 36°01' W 005°36'0 0.0
2018-Jun-12 04:30N 36°01' W 005°36'0 0.0
2018-Jun-12 04:00N 36°01' W 005°36'0 0.0
2018-Jun-12 03:30N 36°01' W 005°36'0 0.0
2018-Jun-12 03:00N 36°01' W 005°36'0 0.0
2018-Jun-12 02:30N 36°01' W 005°36'0 0.0
2018-Jun-12 02:00N 36°01' W 005°36'0 0.0
2018-Jun-12 01:30N 36°01' W 005°36'0 0.0
2018-Jun-12 01:00N 36°01' W 005°36'0 0.0
2018-Jun-12 00:30N 36°01' W 005°36'0 0.0
2018-Jun-12 00:00N 36°01' W 005°36'0 0.0
2018-Jun-11 23:30N 36°01' W 005°36'0 0.0
2018-Jun-11 23:00N 36°01' W 005°36'0 0.0
2018-Jun-11 22:30N 36°01' W 005°36'0 0.0
2018-Jun-11 22:00N 36°01' W 005°36'3 5.8
2018-Jun-11 21:30N 35°58' W 005°38'10 3.5
2018-Jun-11 18:43N 35°51' W 005°46'624.1
2018-Jun-11 18:27N 35°57' W 005°44'5 0.4
2018-Jun-11 06:13N 35°59' W 005°38'2 8.2
2018-Jun-11 05:58N 36°01' W 005°36'0 0.0
2018-Jun-11 05:30N 36°01' W 005°36'0 0.0
2018-Jun-11 05:00N 36°01' W 005°36'0 0.0
2018-Jun-11 04:30N 36°01' W 005°36'0 0.0
2018-Jun-11 04:00N 36°01' W 005°36'0 0.0
2018-Jun-11 03:30N 36°01' W 005°36'0 0.0
2018-Jun-11 03:00N 36°01' W 005°36'0 0.0
2018-Jun-11 02:30N 36°01' W 005°36'0 0.0
2018-Jun-11 02:00N 36°01' W 005°36'0 0.0
2018-Jun-11 01:30N 36°01' W 005°36'0 0.0
2018-Jun-11 01:00N 36°01' W 005°36'0 0.0
2018-Jun-11 00:30N 36°01' W 005°36'0 0.0
2018-Jun-11 00:00N 36°01' W 005°36'0 0.0
2018-Jun-10 23:27N 36°01' W 005°36'0 0.0
2018-Jun-10 22:50N 36°01' W 005°36'0 0.0
2018-Jun-10 22:29N 36°01' W 005°36'0 0.1
2018-Jun-10 21:52N 36°01' W 005°36'2 0.6
2018-Jun-10 18:15N 35°59' W 005°38'2 2.7
2018-Jun-10 17:29N 36°01' W 005°36'3 0.9
2018-Jun-10 14:21N 35°58' W 005°38'3 2.9
2018-Jun-10 13:21N 36°01' W 005°36'2 6.5
2018-Jun-10 13:00N 35°58' W 005°37'1 0.5
2018-Jun-10 10:10N 35°59' W 005°38'2 9.8
2018-Jun-10 09:57N 36°01' W 005°36'0 0.0
2018-Jun-10 09:10N 36°01' W 005°36'1 3.7
2018-Jun-10 09:00N 36°00' W 005°36'12 5.2
2018-Jun-10 06:42N 35°51' W 005°46'922.5
2018-Jun-10 06:19N 35°58' W 005°40'412.0
2018-Jun-10 06:00N 36°01' W 005°36'0 0.0
2018-Jun-10 05:30N 36°01' W 005°36'0 0.0
2018-Jun-10 05:00N 36°01' W 005°36'0 0.0
2018-Jun-10 04:30N 36°01' W 005°36'0 0.0
2018-Jun-10 04:00N 36°01' W 005°36'0 0.0
2018-Jun-10 03:30N 36°01' W 005°36'0 0.0
2018-Jun-10 03:00N 36°01' W 005°36'0 0.0
2018-Jun-10 02:30N 36°01' W 005°36'0 0.0
2018-Jun-10 02:00N 36°01' W 005°36'0 0.0
2018-Jun-10 01:30N 36°01' W 005°36'0 0.0
2018-Jun-10 01:00N 36°01' W 005°36'0 0.0
2018-Jun-10 00:30N 36°01' W 005°36'0 0.0
2018-Jun-10 00:00N 36°01' W 005°36'0 0.0
2018-Jun-09 23:30N 36°01' W 005°36'0 0.0
2018-Jun-09 23:00N 36°01' W 005°36'0 0.0
2018-Jun-09 22:30N 36°01' W 005°36'0 0.0
2018-Jun-09 22:00N 36°01' W 005°36'610.4
2018-Jun-09 21:26N 35°56' W 005°40'6 2.3
2018-Jun-09 18:49N 35°53' W 005°47'822.5
2018-Jun-09 18:28N 35°58' W 005°39'4 7.7
2018-Jun-09 18:00N 36°01' W 005°36'610.8
2018-Jun-09 17:25N 35°56' W 005°41'6 2.5
2018-Jun-09 14:52N 35°51' W 005°47'719.7
2018-Jun-09 14:30N 35°57' W 005°42'611.8
2018-Jun-09 14:01N 36°01' W 005°36'0 0.0
2018-Jun-09 13:31N 36°01' W 005°36'3 5.1
2018-Jun-09 13:01N 35°58' W 005°38'1 0.5
2018-Jun-09 10:18N 35°59' W 005°39'3 3.0
2018-Jun-09 09:15N 36°01' W 005°36'2 0.6
2018-Jun-09 06:14N 35°59' W 005°37'2 0.5
2018-Jun-09 02:27N 36°01' W 005°36'0 0.0
2018-Jun-09 02:00N 36°01' W 005°36'  
Track history (hours):
 
Tides and Currents Weather Stations Pressure Air Temp Water Temp Dewpoint Dewpoint Depression Visibility Wind Speed Wind Dir Waves Ship Positions

Maria Dolores

Last reported at 2018-Jun-19 00:55 UTC. Time now 2018-Jun-21 22:05 UTC.
Position N 36°01' W 005°36'.

Length 68 m; draft 2.2 m.

Type: Ship. MMSI: 215883000.

Date/timePositionNaut miles runAvg speedWind from/ knotsBaromVisibWave heightAir tempDewpointWater temp
2018-Jun-19 00:55N 36°01' W 005°36'0 0.0
2018-Jun-19 00:30N 36°01' W 005°36'1 0.2
2018-Jun-18 21:14N 36°00' W 005°36'0 0.0
2018-Jun-18 06:06N 36°00' W 005°36'1 5.4
2018-Jun-18 06:00N 36°01' W 005°36'0 0.0
2018-Jun-18 05:31N 36°01' W 005°36'0 0.0
2018-Jun-18 05:00N 36°01' W 005°36'0 0.0
2018-Jun-18 04:30N 36°01' W 005°36'0 0.0
2018-Jun-18 03:43N 36°01' W 005°36'0 0.0
2018-Jun-18 03:31N 36°01' W 005°36'0 0.0
2018-Jun-18 02:19N 36°01' W 005°36'0 0.0
2018-Jun-18 02:01N 36°01' W 005°36'0 0.0
2018-Jun-18 01:31N 36°01' W 005°36'0 0.0
2018-Jun-18 01:01N 36°01' W 005°36'0 0.0
2018-Jun-18 00:31N 36°01' W 005°36'0 0.0
2018-Jun-18 00:00N 36°01' W 005°36'0 0.0
2018-Jun-17 23:30N 36°01' W 005°36'0 0.0
2018-Jun-17 23:01N 36°01' W 005°36'0 0.0
2018-Jun-17 21:25N 36°01' W 005°36'1 2.0
2018-Jun-17 21:00N 35°60' W 005°36'12 5.4
2018-Jun-17 18:44N 35°51' W 005°47'523.3
2018-Jun-17 18:30N 35°56' W 005°45'9 6.6
2018-Jun-17 17:13N 36°00' W 005°36'13 5.0
2018-Jun-17 14:40N 35°51' W 005°47'526.0
2018-Jun-17 14:29N 35°56' W 005°46'919.2
2018-Jun-17 14:00N 36°01' W 005°36'0 0.0
2018-Jun-17 13:30N 36°01' W 005°36'917.9
2018-Jun-17 13:00N 35°54' W 005°44'8 3.4
2018-Jun-17 10:32N 36°00' W 005°36'0 0.2
2018-Jun-17 09:29N 35°60' W 005°36'13 4.5
2018-Jun-17 06:40N 35°51' W 005°47'426.1
2018-Jun-17 06:30N 35°55' W 005°47'1020.0
2018-Jun-17 06:00N 36°01' W 005°36'0 0.0
2018-Jun-17 05:26N 36°01' W 005°36'0 0.0
2018-Jun-17 05:00N 36°01' W 005°36'0 0.0
2018-Jun-17 04:30N 36°01' W 005°36'0 0.0
2018-Jun-17 04:00N 36°01' W 005°36'0 0.0
2018-Jun-17 03:30N 36°01' W 005°36'0 0.0
2018-Jun-17 03:00N 36°01' W 005°36'0 0.0
2018-Jun-17 02:30N 36°01' W 005°36'0 0.0
2018-Jun-17 02:00N 36°01' W 005°36'0 0.0
2018-Jun-17 01:30N 36°01' W 005°36'0 0.0
2018-Jun-17 01:00N 36°01' W 005°36'0 0.0
2018-Jun-17 00:30N 36°01' W 005°36'0 0.0
2018-Jun-17 00:00N 36°01' W 005°36'0 0.0
2018-Jun-16 23:30N 36°01' W 005°36'0 0.0
2018-Jun-16 23:00N 36°01' W 005°36'0 0.0
2018-Jun-16 22:30N 36°01' W 005°36'0 0.0
2018-Jun-16 22:00N 36°01' W 005°36'0 0.3
2018-Jun-16 21:31N 36°00' W 005°36'1223.6
2018-Jun-16 21:00N 35°51' W 005°46'12 4.0
2018-Jun-16 18:07N 35°60' W 005°36'1 0.8
2018-Jun-16 17:21N 36°01' W 005°36'4 0.4
2018-Jun-16 06:19N 35°58' W 005°40'412.9
2018-Jun-16 06:01N 36°01' W 005°36'0 0.0
2018-Jun-16 05:30N 36°01' W 005°36'0 0.0
2018-Jun-16 05:01N 36°01' W 005°36'0 0.0
2018-Jun-16 04:31N 36°01' W 005°36'0 0.0
2018-Jun-16 04:01N 36°01' W 005°36'0 0.0
2018-Jun-16 03:31N 36°01' W 005°36'0 0.0
2018-Jun-16 03:01N 36°01' W 005°36'0 0.0
2018-Jun-16 02:31N 36°01' W 005°36'0 0.0
2018-Jun-16 02:01N 36°01' W 005°36'0 0.0
2018-Jun-16 01:31N 36°01' W 005°36'0 0.0
2018-Jun-16 01:01N 36°01' W 005°36'0 0.0
2018-Jun-16 00:31N 36°01' W 005°36'0 0.0
2018-Jun-16 00:00N 36°01' W 005°36'0 0.0
2018-Jun-15 23:30N 36°01' W 005°36'0 0.0
2018-Jun-15 23:00N 36°01' W 005°36'0 0.0
2018-Jun-15 22:31N 36°01' W 005°36'0 0.0
2018-Jun-15 22:01N 36°01' W 005°36'0 0.9
2018-Jun-15 21:31N 36°00' W 005°36'5 9.8
2018-Jun-15 21:00N 35°56' W 005°40'7 3.4
2018-Jun-15 18:51N 35°51' W 005°47'820.8
2018-Jun-15 18:26N 35°58' W 005°41'510.5
2018-Jun-15 18:00N 36°01' W 005°36'0 0.0
2018-Jun-15 17:30N 36°01' W 005°36'0 0.2
2018-Jun-15 14:32N 36°00' W 005°36'0 5.5
2018-Jun-15 14:29N 36°00' W 005°36'0 0.5
2018-Jun-15 13:57N 36°01' W 005°36'1 1.7
2018-Jun-15 13:30N 35°60' W 005°36'1 0.1
2018-Jun-15 05:34N 36°01' W 005°36'0 0.0
2018-Jun-15 05:30N 36°01' W 005°36'0 0.0
2018-Jun-15 05:00N 36°01' W 005°36'0 0.0
2018-Jun-15 04:30N 36°01' W 005°36'0 0.0
2018-Jun-15 04:00N 36°01' W 005°36'0 0.0
2018-Jun-15 03:30N 36°01' W 005°36'0 0.0
2018-Jun-15 02:58N 36°01' W 005°36'0 0.0
2018-Jun-15 02:30N 36°01' W 005°36'0 0.0
2018-Jun-15 02:00N 36°01' W 005°36'0 0.0
2018-Jun-15 01:30N 36°01' W 005°36'0 0.0
2018-Jun-15 01:00N 36°01' W 005°36'0 0.0
2018-Jun-15 00:30N 36°01' W 005°36'0 0.0
2018-Jun-15 00:00N 36°01' W 005°36'0 0.0
2018-Jun-14 23:30N 36°01' W 005°36'0 0.0
2018-Jun-14 23:00N 36°01' W 005°36'13 3.8
2018-Jun-14 19:35N 35°51' W 005°47'224.6
2018-Jun-14 19:31N 35°53' W 005°47'12 0.9
2018-Jun-14 06:05N 36°01' W 005°36'0 0.0
2018-Jun-14 06:00N 36°01' W 005°36'0 0.0
2018-Jun-14 05:30N 36°01' W 005°36'0 0.0
2018-Jun-14 04:36N 36°01' W 005°36'0 0.0
2018-Jun-14 04:30N 36°01' W 005°36'0 0.0
2018-Jun-14 04:00N 36°01' W 005°36'0 0.0
2018-Jun-14 03:30N 36°01' W 005°36'0 0.0
2018-Jun-14 03:00N 36°01' W 005°36'0 0.0
2018-Jun-14 02:30N 36°01' W 005°36'0 0.0
2018-Jun-14 02:00N 36°01' W 005°36'0 0.0
2018-Jun-14 01:30N 36°01' W 005°36'0 0.0
2018-Jun-13 22:44N 36°01' W 005°36'0 0.0
2018-Jun-13 22:30N 36°01' W 005°36'917.5
2018-Jun-13 21:59N 35°55' W 005°45'8 0.5
2018-Jun-13 06:07N 35°60' W 005°36'1 6.6
2018-Jun-13 06:00N 36°01' W 005°36'0 0.0
2018-Jun-13 05:30N 36°01' W 005°36'0 0.0
2018-Jun-13 05:00N 36°01' W 005°36'0 0.0
2018-Jun-13 04:30N 36°01' W 005°36'0 0.0
2018-Jun-13 04:00N 36°01' W 005°36'0 0.0
2018-Jun-13 03:30N 36°01' W 005°36'0 0.0
2018-Jun-13 03:00N 36°01' W 005°36'0 0.0
2018-Jun-13 02:30N 36°01' W 005°36'0 0.0
2018-Jun-13 02:00N 36°01' W 005°36'0 0.0
2018-Jun-13 01:30N 36°01' W 005°36'0 0.0
2018-Jun-13 01:00N 36°01' W 005°36'0 0.0
2018-Jun-13 00:30N 36°01' W 005°36'0 0.0
2018-Jun-13 00:00N 36°01' W 005°36'1 0.2
2018-Jun-12 21:51N 36°00' W 005°36'1 0.0
2018-Jun-12 05:20N 36°01' W 005°36'0 0.0
2018-Jun-12 05:00N 36°01' W 005°36'0 0.0
2018-Jun-12 04:30N 36°01' W 005°36'0 0.0
2018-Jun-12 04:00N 36°01' W 005°36'0 0.0
2018-Jun-12 03:30N 36°01' W 005°36'0 0.0
2018-Jun-12 03:00N 36°01' W 005°36'0 0.0
2018-Jun-12 02:30N 36°01' W 005°36'0 0.0
2018-Jun-12 02:00N 36°01' W 005°36'0 0.0
2018-Jun-12 01:30N 36°01' W 005°36'0 0.0
2018-Jun-12 01:00N 36°01' W 005°36'0 0.0
2018-Jun-12 00:30N 36°01' W 005°36'0 0.0
2018-Jun-12 00:00N 36°01' W 005°36'0 0.0
2018-Jun-11 23:30N 36°01' W 005°36'0 0.0
2018-Jun-11 23:00N 36°01' W 005°36'0 0.0
2018-Jun-11 22:30N 36°01' W 005°36'0 0.0
2018-Jun-11 22:00N 36°01' W 005°36'3 5.8
2018-Jun-11 21:30N 35°58' W 005°38'10 3.5
2018-Jun-11 18:43N 35°51' W 005°46'624.1
2018-Jun-11 18:27N 35°57' W 005°44'5 0.4
2018-Jun-11 06:13N 35°59' W 005°38'2 8.2
2018-Jun-11 05:58N 36°01' W 005°36'0 0.0
2018-Jun-11 05:30N 36°01' W 005°36'0 0.0
2018-Jun-11 05:00N 36°01' W 005°36'0 0.0
2018-Jun-11 04:30N 36°01' W 005°36'0 0.0
2018-Jun-11 04:00N 36°01' W 005°36'0 0.0
2018-Jun-11 03:30N 36°01' W 005°36'0 0.0
2018-Jun-11 03:00N 36°01' W 005°36'0 0.0
2018-Jun-11 02:30N 36°01' W 005°36'0 0.0
2018-Jun-11 02:00N 36°01' W 005°36'0 0.0
2018-Jun-11 01:30N 36°01' W 005°36'0 0.0
2018-Jun-11 01:00N 36°01' W 005°36'0 0.0
2018-Jun-11 00:30N 36°01' W 005°36'0 0.0
2018-Jun-11 00:00N 36°01' W 005°36'0 0.0
2018-Jun-10 23:27N 36°01' W 005°36'0 0.0
2018-Jun-10 22:50N 36°01' W 005°36'0 0.0
2018-Jun-10 22:29N 36°01' W 005°36'0 0.1
2018-Jun-10 21:52N 36°01' W 005°36'2 0.6
2018-Jun-10 18:15N 35°59' W 005°38'2 2.7
2018-Jun-10 17:29N 36°01' W 005°36'3 0.9
2018-Jun-10 14:21N 35°58' W 005°38'3 2.9
2018-Jun-10 13:21N 36°01' W 005°36'2 6.5
2018-Jun-10 13:00N 35°58' W 005°37'1 0.5
2018-Jun-10 10:10N 35°59' W 005°38'2 9.8
2018-Jun-10 09:57N 36°01' W 005°36'0 0.0
2018-Jun-10 09:10N 36°01' W 005°36'1 3.7
2018-Jun-10 09:00N 36°00' W 005°36'12 5.2
2018-Jun-10 06:42N 35°51' W 005°46'922.5
2018-Jun-10 06:19N 35°58' W 005°40'412.0
2018-Jun-10 06:00N 36°01' W 005°36'0 0.0
2018-Jun-10 05:30N 36°01' W 005°36'0 0.0
2018-Jun-10 05:00N 36°01' W 005°36'0 0.0
2018-Jun-10 04:30N 36°01' W 005°36'0 0.0
2018-Jun-10 04:00N 36°01' W 005°36'0 0.0
2018-Jun-10 03:30N 36°01' W 005°36'0 0.0
2018-Jun-10 03:00N 36°01' W 005°36'0 0.0
2018-Jun-10 02:30N 36°01' W 005°36'0 0.0
2018-Jun-10 02:00N 36°01' W 005°36'0 0.0
2018-Jun-10 01:30N 36°01' W 005°36'0 0.0
2018-Jun-10 01:00N 36°01' W 005°36'0 0.0
2018-Jun-10 00:30N 36°01' W 005°36'0 0.0
2018-Jun-10 00:00N 36°01' W 005°36'0 0.0
2018-Jun-09 23:30N 36°01' W 005°36'0 0.0
2018-Jun-09 23:00N 36°01' W 005°36'0 0.0
2018-Jun-09 22:30N 36°01' W 005°36'0 0.0
2018-Jun-09 22:00N 36°01' W 005°36'610.4
2018-Jun-09 21:26N 35°56' W 005°40'6 2.3
2018-Jun-09 18:49N 35°53' W 005°47'822.5
2018-Jun-09 18:28N 35°58' W 005°39'4 7.7
2018-Jun-09 18:00N 36°01' W 005°36'610.8
2018-Jun-09 17:25N 35°56' W 005°41'6 2.5
2018-Jun-09 14:52N 35°51' W 005°47'719.7
2018-Jun-09 14:30N 35°57' W 005°42'611.8
2018-Jun-09 14:01N 36°01' W 005°36'0 0.0
2018-Jun-09 13:31N 36°01' W 005°36'3 5.1
2018-Jun-09 13:01N 35°58' W 005°38'1 0.5
2018-Jun-09 10:18N 35°59' W 005°39'3 3.0
2018-Jun-09 09:15N 36°01' W 005°36'2 0.6
2018-Jun-09 06:14N 35°59' W 005°37'2 0.5
2018-Jun-09 02:27N 36°01' W 005°36'0 0.0
2018-Jun-09 02:00N 36°01' W 005°36'  

Dump ship's entire track history